Weather at Black Diamond Airport

Public forecast

Using degrees Fahrenheit for public forecast. Weather courtesy of forecast.io.

Closest aviation weather report (METAR) to Black Diamond Airport

Closest report is Renton Municipal Airport, 13.5 nm (25.1 km) NW. Retrieved 2022/05/22 17:53 UTC (16 minutes ago):

KRNT 221753Z 35004KT 10SM CLR 17/07 A3024 RMK AO2 SLP246 T01670067 10167 20072 58007

Closest aviation forecast (TAF) to Black Diamond Airport

Closest forecast is Seattle Tacoma International Airport, 14.6 nm (27.0 km) WNW. Retrieved 2022/05/22 18:34 UTC (0 seconds ago):

TAF KSEA 221732Z 2218/2324 24005KT P6SM FEW200 FM222000 26006KT P6SM BKN200 FM230000 32006KT P6SM BKN200 FM230800 19008KT P6SM BKN100 OVC200 FM231600 20008KT P6SM BKN040 OVC070